sensor_id;sensor_type;location;lat;lon;timestamp;pressure;altitude;pressure_sealevel;temperature;humidity
35023;BME280;21214;44.912;8.204;2023-07-29T00:00:44;99405.56;;;22.88;100.00
35023;BME280;21214;44.912;8.204;2023-07-29T00:03:10;99391.50;;;22.86;100.00
35023;BME280;21214;44.912;8.204;2023-07-29T00:05:39;99394.03;;;22.81;100.00
35023;BME280;21214;44.912;8.204;2023-07-29T00:08:04;99382.72;;;22.79;100.00
35023;BME280;21214;44.912;8.204;2023-07-29T00:10:35;99391.81;;;22.78;100.00
35023;BME280;21214;44.912;8.204;2023-07-29T00:13:00;99385.63;;;22.77;100.00
35023;BME280;21214;44.912;8.204;2023-07-29T00:15:26;99398.56;;;22.62;100.00
35023;BME280;21214;44.912;8.204;2023-07-29T00:17:51;99390.38;;;22.57;100.00
35023;BME280;21214;44.912;8.204;2023-07-29T00:20:17;99386.28;;;22.55;100.00
35023;BME280;21214;44.912;8.204;2023-07-29T00:22:42;99386.84;;;22.57;100.00
35023;BME280;21214;44.912;8.204;2023-07-29T00:25:08;99395.88;;;22.62;100.00
35023;BME280;21214;44.912;8.204;2023-07-29T00:27:34;99391.78;;;22.60;100.00
35023;BME280;21214;44.912;8.204;2023-07-29T00:29:59;99394.63;;;22.65;100.00
35023;BME280;21214;44.912;8.204;2023-07-29T00:32:26;99391.72;;;22.66;100.00
35023;BME280;21214;44.912;8.204;2023-07-29T00:34:52;99390.91;;;22.66;100.00
35023;BME280;21214;44.912;8.204;2023-07-29T00:37:18;99392.91;;;22.70;100.00
35023;BME280;21214;44.912;8.204;2023-07-29T00:39:45;99388.81;;;22.68;100.00
35023;BME280;21214;44.912;8.204;2023-07-29T00:42:10;99382.00;;;22.47;100.00
35023;BME280;21214;44.912;8.204;2023-07-29T00:44:35;99388.22;;;22.48;100.00
35023;BME280;21214;44.912;8.204;2023-07-29T00:47:02;99381.94;;;22.54;100.00
35023;BME280;21214;44.912;8.204;2023-07-29T00:49:28;99389.41;;;22.52;100.00
35023;BME280;21214;44.912;8.204;2023-07-29T00:51:53;99380.34;;;22.46;100.00
35023;BME280;21214;44.912;8.204;2023-07-29T00:54:19;99383.84;;;22.28;100.00
35023;BME280;21214;44.912;8.204;2023-07-29T00:56:44;99383.91;;;22.22;100.00
35023;BME280;21214;44.912;8.204;2023-07-29T00:59:11;99395.13;;;22.19;100.00
35023;BME280;21214;44.912;8.204;2023-07-29T01:01:37;99400.19;;;22.09;100.00
35023;BME280;21214;44.912;8.204;2023-07-29T01:04:02;99408.53;;;21.94;100.00
35023;BME280;21214;44.912;8.204;2023-07-29T01:06:41;99401.34;;;21.88;100.00
35023;BME280;21214;44.912;8.204;2023-07-29T01:14:11;99399.53;;;21.82;100.00
35023;BME280;21214;44.912;8.204;2023-07-29T01:16:45;99395.50;;;21.73;100.00
35023;BME280;21214;44.912;8.204;2023-07-29T01:22:03;99405.88;;;21.62;100.00
35023;BME280;21214;44.912;8.204;2023-07-29T01:24:29;99407.13;;;21.67;100.00
35023;BME280;21214;44.912;8.204;2023-07-29T01:26:54;99413.84;;;21.76;100.00
35023;BME280;21214;44.912;8.204;2023-07-29T01:29:20;99426.16;;;21.58;100.00
35023;BME280;21214;44.912;8.204;2023-07-29T01:31:46;99432.47;;;21.39;100.00
35023;BME280;21214;44.912;8.204;2023-07-29T01:34:26;99434.25;;;21.20;100.00
35023;BME280;21214;44.912;8.204;2023-07-29T01:36:51;99428.91;;;21.07;100.00
35023;BME280;21214;44.912;8.204;2023-07-29T01:39:20;99420.94;;;20.88;100.00
35023;BME280;21214;44.912;8.204;2023-07-29T01:41:47;99418.03;;;20.96;100.00
35023;BME280;21214;44.912;8.204;2023-07-29T01:44:13;99418.19;;;21.01;100.00
35023;BME280;21214;44.912;8.204;2023-07-29T01:46:40;99414.66;;;21.07;100.00
35023;BME280;21214;44.912;8.204;2023-07-29T01:49:06;99401.63;;;21.17;100.00
35023;BME280;21214;44.912;8.204;2023-07-29T01:51:31;99397.06;;;21.24;100.00
35023;BME280;21214;44.912;8.204;2023-07-29T01:53:57;99396.63;;;21.27;100.00
35023;BME280;21214;44.912;8.204;2023-07-29T01:56:24;99398.66;;;21.32;100.00
35023;BME280;21214;44.912;8.204;2023-07-29T01:58:53;99401.31;;;21.38;100.00
35023;BME280;21214;44.912;8.204;2023-07-29T02:01:18;99414.75;;;21.38;100.00
35023;BME280;21214;44.912;8.204;2023-07-29T02:03:44;99409.97;;;21.40;100.00
35023;BME280;21214;44.912;8.204;2023-07-29T02:06:09;99415.59;;;21.32;100.00
35023;BME280;21214;44.912;8.204;2023-07-29T02:08:35;99418.47;;;21.37;100.00
35023;BME280;21214;44.912;8.204;2023-07-29T02:11:00;99418.84;;;21.41;100.00
35023;BME280;21214;44.912;8.204;2023-07-29T02:13:26;99412.66;;;21.40;100.00
35023;BME280;21214;44.912;8.204;2023-07-29T02:15:51;99405.78;;;21.44;100.00
35023;BME280;21214;44.912;8.204;2023-07-29T02:18:17;99401.03;;;21.46;100.00
35023;BME280;21214;44.912;8.204;2023-07-29T02:20:42;99405.22;;;21.42;100.00
35023;BME280;21214;44.912;8.204;2023-07-29T02:23:14;99412.38;;;21.17;100.00
35023;BME280;21214;44.912;8.204;2023-07-29T02:25:40;99401.63;;;21.10;100.00
35023;BME280;21214;44.912;8.204;2023-07-29T02:28:05;99405.34;;;21.16;100.00
35023;BME280;21214;44.912;8.204;2023-07-29T02:30:31;99399.13;;;21.22;100.00
35023;BME280;21214;44.912;8.204;2023-07-29T02:32:57;99399.09;;;21.29;100.00
35023;BME280;21214;44.912;8.204;2023-07-29T02:35:22;99403.19;;;21.38;100.00
35023;BME280;21214;44.912;8.204;2023-07-29T02:37:48;99398.63;;;21.38;100.00
35023;BME280;21214;44.912;8.204;2023-07-29T02:40:13;99396.19;;;21.30;100.00
35023;BME280;21214;44.912;8.204;2023-07-29T02:42:39;99394.53;;;21.29;100.00
35023;BME280;21214;44.912;8.204;2023-07-29T02:45:04;99394.13;;;21.32;100.00
35023;BME280;21214;44.912;8.204;2023-07-29T02:47:30;99386.66;;;21.34;100.00
35023;BME280;21214;44.912;8.204;2023-07-29T02:49:55;99380.44;;;21.40;100.00
35023;BME280;21214;44.912;8.204;2023-07-29T02:52:21;99379.56;;;21.46;100.00
35023;BME280;21214;44.912;8.204;2023-07-29T02:54:46;99377.53;;;21.42;100.00
35023;BME280;21214;44.912;8.204;2023-07-29T02:57:13;99384.94;;;21.46;100.00
35023;BME280;21214;44.912;8.204;2023-07-29T02:59:39;99384.50;;;21.49;100.00
35023;BME280;21214;44.912;8.204;2023-07-29T03:02:04;99381.38;;;21.52;100.00
35023;BME280;21214;44.912;8.204;2023-07-29T03:04:30;99369.41;;;21.55;100.00
35023;BME280;21214;44.912;8.204;2023-07-29T03:06:55;99374.97;;;21.53;100.00
35023;BME280;21214;44.912;8.204;2023-07-29T03:09:20;99387.44;;;21.41;100.00
35023;BME280;21214;44.912;8.204;2023-07-29T03:11:46;99391.91;;;21.22;100.00
35023;BME280;21214;44.912;8.204;2023-07-29T03:14:11;99398.72;;;21.25;100.00
35023;BME280;21214;44.912;8.204;2023-07-29T03:16:37;99404.66;;;21.27;100.00
35023;BME280;21214;44.912;8.204;2023-07-29T03:19:03;99402.44;;;21.24;100.00
35023;BME280;21214;44.912;8.204;2023-07-29T03:21:28;99397.06;;;21.24;100.00
35023;BME280;21214;44.912;8.204;2023-07-29T03:23:54;99396.19;;;21.30;100.00
35023;BME280;21214;44.912;8.204;2023-07-29T03:26:19;99400.75;;;21.30;100.00
35023;BME280;21214;44.912;8.204;2023-07-29T03:28:45;99406.31;;;21.28;100.00
35023;BME280;21214;44.912;8.204;2023-07-29T03:31:10;99402.38;;;21.31;100.00
35023;BME280;21214;44.912;8.204;2023-07-29T03:33:36;99404.53;;;21.09;100.00
35023;BME280;21214;44.912;8.204;2023-07-29T03:36:01;99408.69;;;21.05;100.00
35023;BME280;21214;44.912;8.204;2023-07-29T03:38:27;99407.44;;;21.07;100.00
35023;BME280;21214;44.912;8.204;2023-07-29T03:40:53;99418.16;;;21.07;100.00
35023;BME280;21214;44.912;8.204;2023-07-29T03:43:18;99413.72;;;20.81;100.00
35023;BME280;21214;44.912;8.204;2023-07-29T03:45:44;99418.69;;;20.84;100.00
35023;BME280;21214;44.912;8.204;2023-07-29T03:48:09;99426.09;;;20.82;100.00
35023;BME280;21214;44.912;8.204;2023-07-29T03:50:35;99434.00;;;20.64;100.00
35023;BME280;21214;44.912;8.204;2023-07-29T03:53:01;99431.16;;;20.46;100.00
35023;BME280;21214;44.912;8.204;2023-07-29T03:55:27;99436.13;;;20.36;100.00
35023;BME280;21214;44.912;8.204;2023-07-29T03:57:55;99417.56;;;20.48;100.00
35023;BME280;21214;44.912;8.204;2023-07-29T04:00:20;99421.25;;;20.53;100.00
35023;BME280;21214;44.912;8.204;2023-07-29T04:02:47;99435.50;;;20.47;100.00
35023;BME280;21214;44.912;8.204;2023-07-29T04:05:13;99419.41;;;20.40;100.00
35023;BME280;21214;44.912;8.204;2023-07-29T04:07:38;99420.25;;;20.41;100.00
35023;BME280;21214;44.912;8.204;2023-07-29T04:10:04;99435.06;;;20.24;100.00
35023;BME280;21214;44.912;8.204;2023-07-29T04:12:30;99436.09;;;20.16;100.00
35023;BME280;21214;44.912;8.204;2023-07-29T04:14:56;99443.31;;;20.29;100.00
35023;BME280;21214;44.912;8.204;2023-07-29T04:17:21;99449.72;;;20.41;100.00
35023;BME280;21214;44.912;8.204;2023-07-29T04:19:47;99451.97;;;20.44;100.00
35023;BME280;21214;44.912;8.204;2023-07-29T04:22:12;99449.91;;;20.46;100.00
35023;BME280;21214;44.912;8.204;2023-07-29T04:24:38;99448.06;;;20.40;100.00
35023;BME280;21214;44.912;8.204;2023-07-29T04:27:03;99443.13;;;20.43;100.00
35023;BME280;21214;44.912;8.204;2023-07-29T04:29:29;99441.03;;;20.52;100.00
35023;BME280;21214;44.912;8.204;2023-07-29T04:31:55;99440.63;;;20.55;100.00
35023;BME280;21214;44.912;8.204;2023-07-29T04:34:20;99445.16;;;20.61;100.00
35023;BME280;21214;44.912;8.204;2023-07-29T04:36:46;99455.66;;;20.63;100.00
35023;BME280;21214;44.912;8.204;2023-07-29T04:39:11;99461.19;;;20.74;100.00
35023;BME280;21214;44.912;8.204;2023-07-29T04:41:37;99456.63;;;20.81;100.00
35023;BME280;21214;44.912;8.204;2023-07-29T04:44:03;99453.31;;;20.86;100.00
35023;BME280;21214;44.912;8.204;2023-07-29T04:46:28;99455.59;;;20.82;100.00
35023;BME280;21214;44.912;8.204;2023-07-29T04:48:54;99453.97;;;20.75;100.00
35023;BME280;21214;44.912;8.204;2023-07-29T04:51:19;99460.34;;;20.80;100.00
35023;BME280;21214;44.912;8.204;2023-07-29T04:53:45;99451.47;;;20.87;100.00
35023;BME280;21214;44.912;8.204;2023-07-29T04:56:10;99447.09;;;20.92;100.00
35023;BME280;21214;44.912;8.204;2023-07-29T04:58:36;99455.75;;;21.01;100.00
35023;BME280;21214;44.912;8.204;2023-07-29T05:01:02;99444.75;;;21.09;100.00
35023;BME280;21214;44.912;8.204;2023-07-29T05:03:28;99453.44;;;21.11;100.00
35023;BME280;21214;44.912;8.204;2023-07-29T05:05:54;99455.31;;;21.17;100.00
35023;BME280;21214;44.912;8.204;2023-07-29T05:08:21;99458.97;;;21.22;100.00
35023;BME280;21214;44.912;8.204;2023-07-29T05:10:50;99460.63;;;21.23;100.00
35023;BME280;21214;44.912;8.204;2023-07-29T05:13:16;99461.84;;;21.28;100.00
35023;BME280;21214;44.912;8.204;2023-07-29T05:15:41;99462.25;;;21.31;100.00
35023;BME280;21214;44.912;8.204;2023-07-29T05:18:06;99460.41;;;21.32;100.00
35023;BME280;21214;44.912;8.204;2023-07-29T05:20:32;99458.72;;;21.37;100.00
35023;BME280;21214;44.912;8.204;2023-07-29T05:22:57;99453.53;;;21.42;100.00
35023;BME280;21214;44.912;8.204;2023-07-29T05:25:23;99465.06;;;21.49;100.00
35023;BME280;21214;44.912;8.204;2023-07-29T05:27:48;99475.34;;;21.52;100.00
35023;BME280;21214;44.912;8.204;2023-07-29T05:30:14;99471.28;;;21.43;100.00
35023;BME280;21214;44.912;8.204;2023-07-29T05:32:39;99475.59;;;21.44;100.00
35023;BME280;21214;44.912;8.204;2023-07-29T05:35:05;99475.97;;;21.54;100.00
35023;BME280;21214;44.912;8.204;2023-07-29T05:37:31;99478.25;;;21.51;100.00
35023;BME280;21214;44.912;8.204;2023-07-29T05:39:56;99476.97;;;21.60;100.00
35023;BME280;21214;44.912;8.204;2023-07-29T05:42:21;99475.69;;;21.62;100.00
35023;BME280;21214;44.912;8.204;2023-07-29T05:44:47;99474.25;;;21.67;100.00
35023;BME280;21214;44.912;8.204;2023-07-29T05:47:12;99476.97;;;21.60;100.00
35023;BME280;21214;44.912;8.204;2023-07-29T05:49:40;99473.81;;;21.70;100.00
35023;BME280;21214;44.912;8.204;2023-07-29T05:52:06;99478.13;;;21.71;100.00
35023;BME280;21214;44.912;8.204;2023-07-29T05:54:32;99478.13;;;21.71;100.00
35023;BME280;21214;44.912;8.204;2023-07-29T05:56:58;99480.13;;;21.82;100.00
35023;BME280;21214;44.912;8.204;2023-07-29T05:59:23;99473.88;;;21.88;100.00
35023;BME280;21214;44.912;8.204;2023-07-29T06:01:49;99467.66;;;21.94;100.00
35023;BME280;21214;44.912;8.204;2023-07-29T06:04:15;99471.75;;;22.03;100.00
35023;BME280;21214;44.912;8.204;2023-07-29T06:06:40;99464.59;;;22.15;100.00
35023;BME280;21214;44.912;8.204;2023-07-29T06:09:06;99469.09;;;22.21;100.00
35023;BME280;21214;44.912;8.204;2023-07-29T06:11:32;99469.44;;;22.31;100.00
35023;BME280;21214;44.912;8.204;2023-07-29T06:13:57;99471.41;;;22.42;100.00
35023;BME280;21214;44.912;8.204;2023-07-29T06:16:23;99480.41;;;22.55;100.00
35023;BME280;21214;44.912;8.204;2023-07-29T06:18:49;99478.84;;;22.65;100.00
35023;BME280;21214;44.912;8.204;2023-07-29T06:21:14;99479.56;;;22.79;100.00
35023;BME280;21214;44.912;8.204;2023-07-29T06:23:45;99476.34;;;22.89;100.00
35023;BME280;21214;44.912;8.204;2023-07-29T06:26:11;99464.47;;;22.96;100.00
35023;BME280;21214;44.912;8.204;2023-07-29T06:28:36;99471.63;;;23.02;100.00
35023;BME280;21214;44.912;8.204;2023-07-29T06:31:01;99478.19;;;23.06;100.00
35023;BME280;21214;44.912;8.204;2023-07-29T06:33:27;99484.78;;;23.10;100.00
35023;BME280;21214;44.912;8.204;2023-07-29T06:35:52;99493.88;;;23.09;100.00
35023;BME280;21214;44.912;8.204;2023-07-29T06:38:18;99490.06;;;23.17;100.00
35023;BME280;21214;44.912;8.204;2023-07-29T06:40:49;99487.53;;;23.22;100.00
35023;BME280;21214;44.912;8.204;2023-07-29T06:43:14;99483.78;;;23.23;100.00
35023;BME280;21214;44.912;8.204;2023-07-29T06:45:39;99485.88;;;23.21;100.00
35023;BME280;21214;44.912;8.204;2023-07-29T06:48:05;99495.53;;;23.28;100.00
35023;BME280;21214;44.912;8.204;2023-07-29T06:50:30;99488.19;;;23.36;100.00
35023;BME280;21214;44.912;8.204;2023-07-29T06:52:56;99491.03;;;23.41;100.00
35023;BME280;21214;44.912;8.204;2023-07-29T06:55:21;99494.09;;;23.44;100.00
35023;BME280;21214;44.912;8.204;2023-07-29T06:57:46;99492.97;;;23.52;100.00
35023;BME280;21214;44.912;8.204;2023-07-29T07:00:11;99501.56;;;23.60;100.00
35023;BME280;21214;44.912;8.204;2023-07-29T07:02:37;99501.47;;;23.67;100.00
35023;BME280;21214;44.912;8.204;2023-07-29T07:05:03;99491.88;;;23.71;100.00
35023;BME280;21214;44.912;8.204;2023-07-29T07:07:28;99493.88;;;23.76;100.00
35023;BME280;21214;44.912;8.204;2023-07-29T07:09:53;99494.69;;;23.76;100.00
35023;BME280;21214;44.912;8.204;2023-07-29T07:12:19;99503.00;;;23.75;100.00
35023;BME280;21214;44.912;8.204;2023-07-29T07:14:44;99492.63;;;23.78;100.00
35023;BME280;21214;44.912;8.204;2023-07-29T07:17:10;99497.22;;;23.89;100.00
35023;BME280;21214;44.912;8.204;2023-07-29T07:19:35;99486.56;;;23.94;100.00
35023;BME280;21214;44.912;8.204;2023-07-29T07:22:01;99490.81;;;24.02;100.00
35023;BME280;21214;44.912;8.204;2023-07-29T07:24:26;99488.00;;;24.08;100.00
35023;BME280;21214;44.912;8.204;2023-07-29T07:26:51;99494.09;;;24.16;100.00
35023;BME280;21214;44.912;8.204;2023-07-29T07:29:17;99494.50;;;24.19;100.00
35023;BME280;21214;44.912;8.204;2023-07-29T07:31:47;99495.22;;;24.26;100.00
35023;BME280;21214;44.912;8.204;2023-07-29T07:34:14;99493.56;;;24.37;100.00
35023;BME280;21214;44.912;8.204;2023-07-29T07:36:39;99489.47;;;24.46;100.00
35023;BME280;21214;44.912;8.204;2023-07-29T07:39:05;99482.19;;;24.58;100.00
35023;BME280;21214;44.912;8.204;2023-07-29T07:41:30;99479.97;;;24.67;100.00
35023;BME280;21214;44.912;8.204;2023-07-29T07:43:55;99488.50;;;24.75;100.00
35023;BME280;21214;44.912;8.204;2023-07-29T07:46:21;99487.13;;;24.84;100.00
35023;BME280;21214;44.912;8.204;2023-07-29T07:48:46;99488.06;;;24.90;100.00
35023;BME280;21214;44.912;8.204;2023-07-29T07:51:12;99485.47;;;24.95;100.00
35023;BME280;21214;44.912;8.204;2023-07-29T07:53:37;99481.47;;;24.98;100.00
35023;BME280;21214;44.912;8.204;2023-07-29T07:56:03;99483.13;;;24.99;100.00
35023;BME280;21214;44.912;8.204;2023-07-29T07:58:28;99483.00;;;24.94;100.00
35023;BME280;21214;44.912;8.204;2023-07-29T08:01:00;99492.25;;;24.98;100.00
35023;BME280;21214;44.912;8.204;2023-07-29T08:03:25;99485.81;;;24.99;100.00
35023;BME280;21214;44.912;8.204;2023-07-29T08:05:51;99481.13;;;24.94;100.00
35023;BME280;21214;44.912;8.204;2023-07-29T08:08:16;99480.31;;;24.94;100.00
35023;BME280;21214;44.912;8.204;2023-07-29T08:10:41;99474.19;;;24.98;100.00
35023;BME280;21214;44.912;8.204;2023-07-29T08:13:08;99473.00;;;25.06;100.00
35023;BME280;21214;44.912;8.204;2023-07-29T08:15:33;99468.31;;;25.13;100.00
35023;BME280;21214;44.912;8.204;2023-07-29T08:17:58;99477.66;;;25.22;100.00
35023;BME280;21214;44.912;8.204;2023-07-29T08:20:24;99480.94;;;25.24;100.00
35023;BME280;21214;44.912;8.204;2023-07-29T08:22:49;99481.75;;;25.24;100.00
35023;BME280;21214;44.912;8.204;2023-07-29T08:25:14;99483.75;;;25.29;100.00
35023;BME280;21214;44.912;8.204;2023-07-29T08:27:39;99475.19;;;25.32;100.00
35023;BME280;21214;44.912;8.204;2023-07-29T08:30:05;99474.78;;;25.40;100.00
35023;BME280;21214;44.912;8.204;2023-07-29T08:32:30;99474.41;;;25.48;100.00
35023;BME280;21214;44.912;8.204;2023-07-29T08:34:56;99479.19;;;25.58;100.00
35023;BME280;21214;44.912;8.204;2023-07-29T08:37:21;99478.47;;;25.62;100.00
35023;BME280;21214;44.912;8.204;2023-07-29T08:39:46;99474.22;;;25.66;100.00
35023;BME280;21214;44.912;8.204;2023-07-29T08:42:12;99472.09;;;25.68;100.00
35023;BME280;21214;44.912;8.204;2023-07-29T08:44:42;99467.34;;;25.76;100.00
35023;BME280;21214;44.912;8.204;2023-07-29T08:47:08;99466.88;;;25.79;100.00
35023;BME280;21214;44.912;8.204;2023-07-29T08:49:33;99464.28;;;25.84;100.00
35023;BME280;21214;44.912;8.204;2023-07-29T08:51:59;99466.22;;;25.88;100.00
35023;BME280;21214;44.912;8.204;2023-07-29T08:54:25;99468.78;;;25.95;100.00
35023;BME280;21214;44.912;8.204;2023-07-29T08:56:50;99468.88;;;26.00;100.00
35023;BME280;21214;44.912;8.204;2023-07-29T08:59:16;99460.84;;;26.05;100.00
35023;BME280;21214;44.912;8.204;2023-07-29T09:01:42;99457.16;;;26.11;100.00
35023;BME280;21214;44.912;8.204;2023-07-29T09:04:08;99461.03;;;26.15;100.00
35023;BME280;21214;44.912;8.204;2023-07-29T09:06:33;99447.00;;;26.18;100.00
35023;BME280;21214;44.912;8.204;2023-07-29T09:09:00;99446.50;;;26.21;100.00
35023;BME280;21214;44.912;8.204;2023-07-29T09:11:26;99446.03;;;26.24;100.00
35023;BME280;21214;44.912;8.204;2023-07-29T09:13:51;99439.06;;;26.28;100.00
35023;BME280;21214;44.912;8.204;2023-07-29T09:16:18;99431.00;;;26.33;100.00
35023;BME280;21214;44.912;8.204;2023-07-29T09:18:43;99433.81;;;26.38;100.00
35023;BME280;21214;44.912;8.204;2023-07-29T09:21:08;99433.00;;;26.38;100.00
35023;BME280;21214;44.912;8.204;2023-07-29T09:23:40;99432.19;;;26.37;100.00
35023;BME280;21214;44.912;8.204;2023-07-29T09:26:06;99426.53;;;26.39;100.00
35023;BME280;21214;44.912;8.204;2023-07-29T09:28:33;99429.53;;;26.42;100.00
35023;BME280;21214;44.912;8.204;2023-07-29T09:30:58;99430.19;;;26.49;100.00
35023;BME280;21214;44.912;8.204;2023-07-29T09:33:25;99426.22;;;26.57;100.00
35023;BME280;21214;44.912;8.204;2023-07-29T09:35:50;99434.75;;;26.66;100.00
35023;BME280;21214;44.912;8.204;2023-07-29T09:38:16;99432.91;;;26.71;100.00
35023;BME280;21214;44.912;8.204;2023-07-29T09:40:41;99422.41;;;26.75;100.00
35023;BME280;21214;44.912;8.204;2023-07-29T09:43:08;99425.81;;;26.87;100.00
35023;BME280;21214;44.912;8.204;2023-07-29T09:45:34;99422.69;;;26.95;100.00
35023;BME280;21214;44.912;8.204;2023-07-29T09:47:59;99422.81;;;27.05;100.00
35023;BME280;21214;44.912;8.204;2023-07-29T09:50:25;99426.16;;;27.12;100.00
35023;BME280;21214;44.912;8.204;2023-07-29T09:52:51;99423.25;;;27.19;100.00
35023;BME280;21214;44.912;8.204;2023-07-29T09:55:18;99427.03;;;27.18;100.00
35023;BME280;21214;44.912;8.204;2023-07-29T09:57:44;99422.44;;;27.18;100.00
35023;BME280;21214;44.912;8.204;2023-07-29T10:00:10;99418.66;;;27.19;100.00
35023;BME280;21214;44.912;8.204;2023-07-29T10:02:37;99416.50;;;27.21;100.00
35023;BME280;21214;44.912;8.204;2023-07-29T10:05:02;99410.56;;;27.24;100.00
35023;BME280;21214;44.912;8.204;2023-07-29T10:07:29;99414.91;;;27.25;100.00
35023;BME280;21214;44.912;8.204;2023-07-29T10:09:54;99408.44;;;27.26;100.00
35023;BME280;21214;44.912;8.204;2023-07-29T10:12:21;99409.56;;;27.30;100.00
35023;BME280;21214;44.912;8.204;2023-07-29T10:14:46;99404.75;;;27.38;100.00
35023;BME280;21214;44.912;8.204;2023-07-29T10:17:13;99409.66;;;27.41;100.00
35023;BME280;21214;44.912;8.204;2023-07-29T10:19:40;99413.50;;;27.45;100.00
35023;BME280;21214;44.912;8.204;2023-07-29T10:22:07;99411.91;;;27.49;100.00
35023;BME280;21214;44.912;8.204;2023-07-29T10:24:33;99409.81;;;27.51;100.00
35023;BME280;21214;44.912;8.204;2023-07-29T10:27:00;99416.34;;;27.55;100.00
35023;BME280;21214;44.912;8.204;2023-07-29T10:29:32;99416.63;;;27.58;100.00
35023;BME280;21214;44.912;8.204;2023-07-29T10:32:02;99410.72;;;27.61;100.00
35023;BME280;21214;44.912;8.204;2023-07-29T10:34:29;99410.72;;;27.61;100.00
35023;BME280;21214;44.912;8.204;2023-07-29T10:36:54;99410.72;;;27.61;100.00
35023;BME280;21214;44.912;8.204;2023-07-29T10:39:20;99402.59;;;27.61;100.00
35023;BME280;21214;44.912;8.204;2023-07-29T10:47:19;99386.34;;;27.66;100.00
35023;BME280;21214;44.912;8.204;2023-07-29T10:49:45;99386.16;;;27.73;100.00
35023;BME280;21214;44.912;8.204;2023-07-29T10:52:14;99394.31;;;27.78;100.00
35023;BME280;21214;44.912;8.204;2023-07-29T10:54:44;99389.47;;;27.80;100.00
35023;BME280;21214;44.912;8.204;2023-07-29T10:57:13;99387.03;;;27.84;100.00
35023;BME280;21214;44.912;8.204;2023-07-29T10:59:40;99380.28;;;27.86;99.18
35023;BME280;21214;44.912;8.204;2023-07-29T11:02:15;99388.97;;;27.88;99.61
35023;BME280;21214;44.912;8.204;2023-07-29T11:04:50;99384.13;;;27.90;99.79
35023;BME280;21214;44.912;8.204;2023-07-29T11:10:00;99384.16;;;27.95;99.57
35023;BME280;21214;44.912;8.204;2023-07-29T11:17:34;99378.38;;;28.19;98.91
35023;BME280;21214;44.912;8.204;2023-07-29T11:20:03;99373.81;;;28.29;98.35
35023;BME280;21214;44.912;8.204;2023-07-29T11:22:29;99371.13;;;28.34;97.64
35023;BME280;21214;44.912;8.204;2023-07-29T11:24:54;99368.16;;;28.36;95.96
35023;BME280;21214;44.912;8.204;2023-07-29T11:27:20;99363.81;;;28.35;96.55
35023;BME280;21214;44.912;8.204;2023-07-29T11:29:46;99360.81;;;28.31;96.21
35023;BME280;21214;44.912;8.204;2023-07-29T11:32:11;99356.22;;;28.32;96.00
35023;BME280;21214;44.912;8.204;2023-07-29T11:34:36;99352.97;;;28.35;95.39
35023;BME280;21214;44.912;8.204;2023-07-29T11:37:02;99351.66;;;28.42;95.05
35023;BME280;21214;44.912;8.204;2023-07-29T11:39:27;99341.66;;;28.53;92.77
35023;BME280;21214;44.912;8.204;2023-07-29T11:41:52;99345.50;;;28.62;92.08
35023;BME280;21214;44.912;8.204;2023-07-29T11:44:18;99341.44;;;28.70;92.03
35023;BME280;21214;44.912;8.204;2023-07-29T11:46:43;99348.28;;;28.77;88.25
35023;BME280;21214;44.912;8.204;2023-07-29T11:49:09;99338.81;;;28.85;89.43
35023;BME280;21214;44.912;8.204;2023-07-29T11:51:34;99337.75;;;28.91;89.96
35023;BME280;21214;44.912;8.204;2023-07-29T11:54:00;99335.31;;;29.00;89.04
35023;BME280;21214;44.912;8.204;2023-07-29T11:56:25;99326.09;;;29.11;88.87
35023;BME280;21214;44.912;8.204;2023-07-29T11:58:50;99326.41;;;29.24;88.80
35023;BME280;21214;44.912;8.204;2023-07-29T12:01:16;99332.16;;;29.38;87.62
35023;BME280;21214;44.912;8.204;2023-07-29T12:03:41;99319.66;;;29.52;86.51
35023;BME280;21214;44.912;8.204;2023-07-29T12:06:07;99321.84;;;29.65;85.52
35023;BME280;21214;44.912;8.204;2023-07-29T12:08:33;99320.19;;;29.64;85.51
35023;BME280;21214;44.912;8.204;2023-07-29T12:10:58;99319.94;;;29.56;85.24
35023;BME280;21214;44.912;8.204;2023-07-29T12:13:24;99313.13;;;29.48;86.10
35023;BME280;21214;44.912;8.204;2023-07-29T12:15:50;99313.13;;;29.43;86.94
35023;BME280;21214;44.912;8.204;2023-07-29T12:18:15;99315.88;;;29.38;86.62
35023;BME280;21214;44.912;8.204;2023-07-29T12:20:40;99314.22;;;29.37;87.45
35023;BME280;21214;44.912;8.204;2023-07-29T12:23:06;99315.03;;;29.38;87.07
35023;BME280;21214;44.912;8.204;2023-07-29T12:25:33;99318.03;;;29.66;86.34
35023;BME280;21214;44.912;8.204;2023-07-29T12:28:04;99304.69;;;29.75;85.90
35023;BME280;21214;44.912;8.204;2023-07-29T12:30:30;99304.44;;;29.71;86.02
35023;BME280;21214;44.912;8.204;2023-07-29T12:32:57;99303.34;;;29.67;85.52
35023;BME280;21214;44.912;8.204;2023-07-29T12:35:23;99300.63;;;29.62;85.45
35023;BME280;21214;44.912;8.204;2023-07-29T12:37:57;99304.44;;;29.56;85.03
35023;BME280;21214;44.912;8.204;2023-07-29T12:40:23;99293.53;;;29.51;85.50
35023;BME280;21214;44.912;8.204;2023-07-29T12:42:49;99297.38;;;29.50;86.39
35023;BME280;21214;44.912;8.204;2023-07-29T12:45:16;99286.50;;;29.55;86.79
35023;BME280;21214;44.912;8.204;2023-07-29T12:47:41;99287.56;;;29.64;86.61
35023;BME280;21214;44.912;8.204;2023-07-29T12:50:07;99284.84;;;29.69;86.63
35023;BME280;21214;44.912;8.204;2023-07-29T12:52:32;99277.78;;;29.68;85.97
35023;BME280;21214;44.912;8.204;2023-07-29T12:54:57;99273.97;;;29.64;85.37
35023;BME280;21214;44.912;8.204;2023-07-29T12:57:23;99278.88;;;29.62;86.19
35023;BME280;21214;44.912;8.204;2023-07-29T12:59:48;99274.78;;;29.60;86.14
35023;BME280;21214;44.912;8.204;2023-07-29T13:02:13;99269.91;;;29.57;85.88
35023;BME280;21214;44.912;8.204;2023-07-29T13:04:39;99266.38;;;29.56;86.94
35023;BME280;21214;44.912;8.204;2023-07-29T13:07:04;99263.38;;;29.53;87.86